Abbeville, MS (38601)

6:44 AM CDT on July 28, 2015 (GMT -0500)
University-Oxford | | Change Station
CLOSE
Current Station
Airport
Location: Oxford,
Elevation: 453 ft
Nearby Weather Stations
Active Advisory: Heat Advisory

Elev 453 ft 34.38 °N, 89.54 °W | Updated 29 minutes ago

Clear
Clear
73 °F
Feels Like 73 °F
N
0
Wind Variable Wind from North

Today
High -- | Low -- °F
--% Chance of Precip.
Yesterday
High -- | Low -- °F
Precip. -- in
6:05 AM 8:03 PM
Waxing Gibbous, 89% visible
Pressure 30.01 in
Visibility 5.0 miles
Clouds Clear
Dew Point 72 °F
Humidity 94%
Rainfall 0.00 in
Snow Depth Not available.
UV 0 out of 12
Pollen 3.60 out of 12
Air Quality Not available.
Flu Activity Not available.
METAR KUOX 281115Z AUTO 00000KT 5SM CLR 23/22 A3001 RMK AO2 PWINO PNO

More Conditions Fewer Conditions

Pressure 30.01 in
Visibility 5.0 miles
Clouds Clear
Dew Point 72 °F
Humidity 94%
Rainfall 0.00 in
Snow Depth Not available.
UV 0 out of 12
Pollen 3.60 out of 12
Air Quality Not available.
Flu Activity Not available.
METAR KUOX 281115Z AUTO 00000KT 5SM CLR 23/22 A3001 RMK AO2 PWINO PNO

More Conditions Fewer Conditions

10-Day Weather Forecast

×

Almanac

Astronomy

Jul. 28, 2015 Rise Set
Actual Time
Civil Twilight
Nautical Twilight
Astronomical Twilight
Moon
Length of Visible Light
Length of Day
Tomorrow will be .
, % of the Moon is Illuminated

Today's Extremes

State Highs State Lows

Community

WunderPhotos

Upload Photos

1,841,808 photos uploaded!

WunderBlogs® & News

Nearby

Air Quality

  Air Quality AQ Index Pollutant
Not available.

Snow Depth

Station Depth Elevation

Earthquake Activity

City Distance Mag. Time & Date
Minimum magnitude displayed is 2.5.

Coastal Water Temperatures

Place Temperature

Stations

Nearby Weather Stations

Station Location Temp. Windchill Dew Point Humidity Wind Precip. Elev Updated Type
                   
Heat Advisory
Statement as of 3:44 AM CDT on July 28, 2015

... Heat advisory now in effect until 8 PM CDT Wednesday...

* heat index readings... between 105 and 110 degrees. Overnight
low temperatures in the middle and upper 70s will provide
little relief for those without air conditioning.

* Timing... hottest part of the day between 11 am and 8 PM.
Uncomfortably warm and humid through the rest of the period.

* Impacts... increased risk of heat-related illnesses including
heat exhaustion and heat stroke if you do not take the proper
precautions.

Precautionary/preparedness actions...

A heat advisory means that a period of hot temperatures is
expected. The combination of hot temperatures and high humidity
will combine to create a situation in which heat illnesses are
possible. Drink plenty of fluids... stay in an air-conditioned
room... stay out of the sun... and check up on relatives and
neighbors. Remember car interiors can become lethal in a short
period of time.